Terminal Aerodrome Forecast
Issued by NWS

Home | Current Version | Previous Version | Graphics & Text | Print | Product List | Glossary On
Versions: 1 2 3 4 5 6 7 8 9 10 11 12 13 14 15 16 17 18
000
FTUS43 KMPX 311100
TAFRNH
TAF
KRNH 311120Z 3112/0112 35009G16KT P6SM BKN035
     FM311700 36008KT P6SM FEW040
     FM312200 02004KT P6SM SKC
     FM010700 13002KT P6SM FEW250=

USA.gov is the U.S. government's official web portal to all federal, state and local government web resources and services.